sensor_id;sensor_type;location;lat;lon;timestamp;temperature;humidity
6654;DHT22;3363;50.942;7.034;2022-10-16T00:01:40;15.10;99.90
6654;DHT22;3363;50.942;7.034;2022-10-16T00:04:08;15.10;99.90
6654;DHT22;3363;50.942;7.034;2022-10-16T00:06:35;15.10;99.90
6654;DHT22;3363;50.942;7.034;2022-10-16T00:09:03;15.10;99.90
6654;DHT22;3363;50.942;7.034;2022-10-16T00:11:31;15.10;99.90
6654;DHT22;3363;50.942;7.034;2022-10-16T00:13:59;15.10;99.90
6654;DHT22;3363;50.942;7.034;2022-10-16T00:16:26;15.00;99.90
6654;DHT22;3363;50.942;7.034;2022-10-16T00:18:53;15.00;99.90
6654;DHT22;3363;50.942;7.034;2022-10-16T00:21:21;15.10;99.90
6654;DHT22;3363;50.942;7.034;2022-10-16T00:23:49;15.10;99.90
6654;DHT22;3363;50.942;7.034;2022-10-16T00:26:18;15.00;99.90
6654;DHT22;3363;50.942;7.034;2022-10-16T00:28:45;15.10;99.90
6654;DHT22;3363;50.942;7.034;2022-10-16T00:31:12;15.10;99.90
6654;DHT22;3363;50.942;7.034;2022-10-16T00:33:39;15.00;99.90
6654;DHT22;3363;50.942;7.034;2022-10-16T00:36:06;15.00;99.90
6654;DHT22;3363;50.942;7.034;2022-10-16T00:38:33;15.00;99.90
6654;DHT22;3363;50.942;7.034;2022-10-16T00:41:00;15.00;99.90
6654;DHT22;3363;50.942;7.034;2022-10-16T00:43:36;15.00;99.90
6654;DHT22;3363;50.942;7.034;2022-10-16T00:46:03;15.00;99.90
6654;DHT22;3363;50.942;7.034;2022-10-16T00:48:30;15.00;99.90
6654;DHT22;3363;50.942;7.034;2022-10-16T00:50:57;14.90;99.90
6654;DHT22;3363;50.942;7.034;2022-10-16T00:53:24;14.90;99.90
6654;DHT22;3363;50.942;7.034;2022-10-16T00:55:51;14.90;99.90
6654;DHT22;3363;50.942;7.034;2022-10-16T00:58:18;14.90;99.90
6654;DHT22;3363;50.942;7.034;2022-10-16T01:00:46;14.90;99.90
6654;DHT22;3363;50.942;7.034;2022-10-16T01:03:23;14.90;99.90
6654;DHT22;3363;50.942;7.034;2022-10-16T01:05:51;14.90;99.90
6654;DHT22;3363;50.942;7.034;2022-10-16T01:08:22;14.90;99.90
6654;DHT22;3363;50.942;7.034;2022-10-16T01:10:55;14.90;99.90
6654;DHT22;3363;50.942;7.034;2022-10-16T01:13:24;14.80;99.90
6654;DHT22;3363;50.942;7.034;2022-10-16T01:15:55;14.80;99.90
6654;DHT22;3363;50.942;7.034;2022-10-16T01:18:27;14.80;99.90
6654;DHT22;3363;50.942;7.034;2022-10-16T01:20:58;14.80;99.90
6654;DHT22;3363;50.942;7.034;2022-10-16T01:23:27;14.80;99.90
6654;DHT22;3363;50.942;7.034;2022-10-16T01:25:59;14.80;99.90
6654;DHT22;3363;50.942;7.034;2022-10-16T01:28:34;14.70;99.90
6654;DHT22;3363;50.942;7.034;2022-10-16T01:31:02;14.80;99.90
6654;DHT22;3363;50.942;7.034;2022-10-16T01:33:30;14.80;99.90
6654;DHT22;3363;50.942;7.034;2022-10-16T01:36:02;14.80;99.90
6654;DHT22;3363;50.942;7.034;2022-10-16T01:38:29;14.80;99.90
6654;DHT22;3363;50.942;7.034;2022-10-16T01:40:58;14.80;99.90
6654;DHT22;3363;50.942;7.034;2022-10-16T01:43:26;14.80;99.90
6654;DHT22;3363;50.942;7.034;2022-10-16T01:45:56;14.80;99.90
6654;DHT22;3363;50.942;7.034;2022-10-16T01:48:23;14.70;99.90
6654;DHT22;3363;50.942;7.034;2022-10-16T01:50:52;14.70;99.90
6654;DHT22;3363;50.942;7.034;2022-10-16T01:53:20;14.70;99.90
6654;DHT22;3363;50.942;7.034;2022-10-16T01:55:47;14.70;99.90
6654;DHT22;3363;50.942;7.034;2022-10-16T01:58:15;14.70;99.90
6654;DHT22;3363;50.942;7.034;2022-10-16T02:00:42;14.70;99.90
6654;DHT22;3363;50.942;7.034;2022-10-16T02:03:11;14.60;99.90
6654;DHT22;3363;50.942;7.034;2022-10-16T02:05:39;14.70;99.90
6654;DHT22;3363;50.942;7.034;2022-10-16T02:08:07;14.60;99.90
6654;DHT22;3363;50.942;7.034;2022-10-16T02:10:34;14.60;99.90
6654;DHT22;3363;50.942;7.034;2022-10-16T02:13:03;14.70;99.90
6654;DHT22;3363;50.942;7.034;2022-10-16T02:15:31;14.70;99.90
6654;DHT22;3363;50.942;7.034;2022-10-16T02:17:58;14.70;99.90
6654;DHT22;3363;50.942;7.034;2022-10-16T02:20:27;14.60;99.90
6654;DHT22;3363;50.942;7.034;2022-10-16T02:22:54;14.70;99.90
6654;DHT22;3363;50.942;7.034;2022-10-16T02:25:24;14.60;99.90
6654;DHT22;3363;50.942;7.034;2022-10-16T02:27:52;14.60;99.90
6654;DHT22;3363;50.942;7.034;2022-10-16T02:30:21;14.60;99.90
6654;DHT22;3363;50.942;7.034;2022-10-16T02:32:50;14.60;99.90
6654;DHT22;3363;50.942;7.034;2022-10-16T02:35:18;14.60;99.90
6654;DHT22;3363;50.942;7.034;2022-10-16T02:37:47;14.60;99.90
6654;DHT22;3363;50.942;7.034;2022-10-16T02:40:15;14.60;99.90
6654;DHT22;3363;50.942;7.034;2022-10-16T02:42:42;14.50;99.90
6654;DHT22;3363;50.942;7.034;2022-10-16T02:45:09;14.60;99.90
6654;DHT22;3363;50.942;7.034;2022-10-16T02:47:36;14.60;99.90
6654;DHT22;3363;50.942;7.034;2022-10-16T02:50:03;14.60;99.90
6654;DHT22;3363;50.942;7.034;2022-10-16T02:52:30;14.60;99.90
6654;DHT22;3363;50.942;7.034;2022-10-16T02:54:58;14.60;99.90
6654;DHT22;3363;50.942;7.034;2022-10-16T02:57:25;14.60;99.90
6654;DHT22;3363;50.942;7.034;2022-10-16T02:59:51;14.60;99.90
6654;DHT22;3363;50.942;7.034;2022-10-16T03:02:18;14.60;99.90
6654;DHT22;3363;50.942;7.034;2022-10-16T03:04:45;14.60;99.90
6654;DHT22;3363;50.942;7.034;2022-10-16T03:07:11;14.60;99.90
6654;DHT22;3363;50.942;7.034;2022-10-16T03:09:38;14.60;99.90
6654;DHT22;3363;50.942;7.034;2022-10-16T03:12:06;14.60;99.90
6654;DHT22;3363;50.942;7.034;2022-10-16T03:14:33;14.50;99.90
6654;DHT22;3363;50.942;7.034;2022-10-16T03:16:59;14.50;99.90
6654;DHT22;3363;50.942;7.034;2022-10-16T03:19:26;14.40;99.90
6654;DHT22;3363;50.942;7.034;2022-10-16T03:21:53;14.50;99.90
6654;DHT22;3363;50.942;7.034;2022-10-16T03:24:19;14.50;99.90
6654;DHT22;3363;50.942;7.034;2022-10-16T03:26:46;14.50;99.90
6654;DHT22;3363;50.942;7.034;2022-10-16T03:29:14;14.50;99.90
6654;DHT22;3363;50.942;7.034;2022-10-16T03:31:40;14.50;99.90
6654;DHT22;3363;50.942;7.034;2022-10-16T03:34:07;14.50;99.90
6654;DHT22;3363;50.942;7.034;2022-10-16T03:36:34;14.50;99.90
6654;DHT22;3363;50.942;7.034;2022-10-16T03:39:01;14.50;99.90
6654;DHT22;3363;50.942;7.034;2022-10-16T03:41:27;14.50;99.90
6654;DHT22;3363;50.942;7.034;2022-10-16T03:43:54;14.40;99.90
6654;DHT22;3363;50.942;7.034;2022-10-16T03:46:22;14.40;99.90
6654;DHT22;3363;50.942;7.034;2022-10-16T03:48:49;14.40;99.90
6654;DHT22;3363;50.942;7.034;2022-10-16T03:51:15;14.40;99.90
6654;DHT22;3363;50.942;7.034;2022-10-16T03:53:42;14.40;99.90
6654;DHT22;3363;50.942;7.034;2022-10-16T03:56:08;14.50;99.90
6654;DHT22;3363;50.942;7.034;2022-10-16T03:58:35;14.40;99.90
6654;DHT22;3363;50.942;7.034;2022-10-16T04:01:02;14.40;99.90
6654;DHT22;3363;50.942;7.034;2022-10-16T04:03:30;14.40;99.90
6654;DHT22;3363;50.942;7.034;2022-10-16T04:05:56;14.50;99.90
6654;DHT22;3363;50.942;7.034;2022-10-16T04:08:23;14.40;99.90
6654;DHT22;3363;50.942;7.034;2022-10-16T04:10:50;14.40;99.90
6654;DHT22;3363;50.942;7.034;2022-10-16T04:13:16;14.30;99.90
6654;DHT22;3363;50.942;7.034;2022-10-16T04:15:44;14.30;99.90
6654;DHT22;3363;50.942;7.034;2022-10-16T04:18:11;14.30;99.90
6654;DHT22;3363;50.942;7.034;2022-10-16T04:20:39;14.20;99.90
6654;DHT22;3363;50.942;7.034;2022-10-16T04:23:05;14.30;99.90
6654;DHT22;3363;50.942;7.034;2022-10-16T04:25:32;14.20;99.90
6654;DHT22;3363;50.942;7.034;2022-10-16T04:27:59;14.30;99.90
6654;DHT22;3363;50.942;7.034;2022-10-16T04:30:25;14.30;99.90
6654;DHT22;3363;50.942;7.034;2022-10-16T04:32:52;14.30;99.90
6654;DHT22;3363;50.942;7.034;2022-10-16T04:35:19;14.30;99.90
6654;DHT22;3363;50.942;7.034;2022-10-16T04:37:48;14.30;99.90
6654;DHT22;3363;50.942;7.034;2022-10-16T04:40:15;14.30;99.90
6654;DHT22;3363;50.942;7.034;2022-10-16T04:42:42;14.30;99.90
6654;DHT22;3363;50.942;7.034;2022-10-16T04:45:09;14.30;99.90
6654;DHT22;3363;50.942;7.034;2022-10-16T04:47:36;14.30;99.90
6654;DHT22;3363;50.942;7.034;2022-10-16T04:50:03;14.30;99.90
6654;DHT22;3363;50.942;7.034;2022-10-16T04:52:29;14.30;99.90
6654;DHT22;3363;50.942;7.034;2022-10-16T04:54:58;14.30;99.90
6654;DHT22;3363;50.942;7.034;2022-10-16T04:57:27;14.30;99.90
6654;DHT22;3363;50.942;7.034;2022-10-16T04:59:54;14.20;99.90
6654;DHT22;3363;50.942;7.034;2022-10-16T05:02:21;14.30;99.90
6654;DHT22;3363;50.942;7.034;2022-10-16T05:04:48;14.20;99.90
6654;DHT22;3363;50.942;7.034;2022-10-16T05:07:14;14.20;99.90
6654;DHT22;3363;50.942;7.034;2022-10-16T05:09:41;14.30;99.90
6654;DHT22;3363;50.942;7.034;2022-10-16T05:12:09;14.20;99.90
6654;DHT22;3363;50.942;7.034;2022-10-16T05:14:36;14.30;99.90
6654;DHT22;3363;50.942;7.034;2022-10-16T05:17:02;14.30;99.90
6654;DHT22;3363;50.942;7.034;2022-10-16T05:19:29;14.20;99.90
6654;DHT22;3363;50.942;7.034;2022-10-16T05:21:55;14.10;99.90
6654;DHT22;3363;50.942;7.034;2022-10-16T05:24:22;14.20;99.90
6654;DHT22;3363;50.942;7.034;2022-10-16T05:26:49;14.20;99.90
6654;DHT22;3363;50.942;7.034;2022-10-16T05:29:19;14.20;99.90
6654;DHT22;3363;50.942;7.034;2022-10-16T05:31:46;14.10;99.90
6654;DHT22;3363;50.942;7.034;2022-10-16T05:34:13;14.10;99.90
6654;DHT22;3363;50.942;7.034;2022-10-16T05:36:39;14.10;99.90
6654;DHT22;3363;50.942;7.034;2022-10-16T05:39:06;14.20;99.90
6654;DHT22;3363;50.942;7.034;2022-10-16T05:41:32;14.20;99.90
6654;DHT22;3363;50.942;7.034;2022-10-16T05:43:59;14.20;99.90
6654;DHT22;3363;50.942;7.034;2022-10-16T05:46:27;14.20;99.90
6654;DHT22;3363;50.942;7.034;2022-10-16T05:48:54;14.20;99.90
6654;DHT22;3363;50.942;7.034;2022-10-16T05:51:20;14.10;99.90
6654;DHT22;3363;50.942;7.034;2022-10-16T05:53:47;14.10;99.90
6654;DHT22;3363;50.942;7.034;2022-10-16T05:56:14;14.10;99.90
6654;DHT22;3363;50.942;7.034;2022-10-16T05:58:41;14.10;99.90
6654;DHT22;3363;50.942;7.034;2022-10-16T06:01:10;14.20;99.90
6654;DHT22;3363;50.942;7.034;2022-10-16T06:03:39;14.20;99.90
6654;DHT22;3363;50.942;7.034;2022-10-16T06:06:09;14.20;99.90
6654;DHT22;3363;50.942;7.034;2022-10-16T06:08:36;14.20;99.90
6654;DHT22;3363;50.942;7.034;2022-10-16T06:11:04;14.20;99.90
6654;DHT22;3363;50.942;7.034;2022-10-16T06:13:31;14.20;99.90
6654;DHT22;3363;50.942;7.034;2022-10-16T06:15:59;14.20;99.90
6654;DHT22;3363;50.942;7.034;2022-10-16T06:18:26;14.20;99.90
6654;DHT22;3363;50.942;7.034;2022-10-16T06:20:54;14.20;99.90
6654;DHT22;3363;50.942;7.034;2022-10-16T06:23:21;14.20;99.90
6654;DHT22;3363;50.942;7.034;2022-10-16T06:25:48;14.10;99.90
6654;DHT22;3363;50.942;7.034;2022-10-16T06:28:14;14.20;99.90
6654;DHT22;3363;50.942;7.034;2022-10-16T06:30:41;14.10;99.90
6654;DHT22;3363;50.942;7.034;2022-10-16T06:33:09;14.10;99.90
6654;DHT22;3363;50.942;7.034;2022-10-16T06:35:35;14.10;99.90
6654;DHT22;3363;50.942;7.034;2022-10-16T06:38:03;14.20;99.90
6654;DHT22;3363;50.942;7.034;2022-10-16T06:40:30;14.20;99.90
6654;DHT22;3363;50.942;7.034;2022-10-16T06:42:57;14.20;99.90
6654;DHT22;3363;50.942;7.034;2022-10-16T06:45:23;14.20;99.90
6654;DHT22;3363;50.942;7.034;2022-10-16T06:47:50;14.20;99.90
6654;DHT22;3363;50.942;7.034;2022-10-16T06:50:17;14.20;99.90
6654;DHT22;3363;50.942;7.034;2022-10-16T06:52:43;14.10;99.90
6654;DHT22;3363;50.942;7.034;2022-10-16T06:55:11;14.10;99.90
6654;DHT22;3363;50.942;7.034;2022-10-16T06:57:38;14.10;99.90
6654;DHT22;3363;50.942;7.034;2022-10-16T07:00:06;14.20;99.90
6654;DHT22;3363;50.942;7.034;2022-10-16T07:02:33;14.20;99.90
6654;DHT22;3363;50.942;7.034;2022-10-16T07:05:00;14.20;99.90
6654;DHT22;3363;50.942;7.034;2022-10-16T07:07:26;14.20;99.90
6654;DHT22;3363;50.942;7.034;2022-10-16T07:09:53;14.20;99.90
6654;DHT22;3363;50.942;7.034;2022-10-16T07:12:21;14.20;99.90
6654;DHT22;3363;50.942;7.034;2022-10-16T07:14:48;14.20;99.90
6654;DHT22;3363;50.942;7.034;2022-10-16T07:17:17;14.20;99.90
6654;DHT22;3363;50.942;7.034;2022-10-16T07:19:44;14.20;99.90
6654;DHT22;3363;50.942;7.034;2022-10-16T07:22:11;14.30;99.90
6654;DHT22;3363;50.942;7.034;2022-10-16T07:24:37;14.30;99.90
6654;DHT22;3363;50.942;7.034;2022-10-16T07:27:04;14.30;99.90
6654;DHT22;3363;50.942;7.034;2022-10-16T07:29:32;14.30;99.90
6654;DHT22;3363;50.942;7.034;2022-10-16T07:31:59;14.30;99.90
6654;DHT22;3363;50.942;7.034;2022-10-16T07:34:26;14.30;99.90
6654;DHT22;3363;50.942;7.034;2022-10-16T07:36:52;14.30;99.90
6654;DHT22;3363;50.942;7.034;2022-10-16T07:39:19;14.30;99.90
6654;DHT22;3363;50.942;7.034;2022-10-16T07:41:46;14.30;99.90
6654;DHT22;3363;50.942;7.034;2022-10-16T07:44:12;14.40;99.90
6654;DHT22;3363;50.942;7.034;2022-10-16T07:46:40;14.30;99.90
6654;DHT22;3363;50.942;7.034;2022-10-16T07:49:08;14.30;99.90
6654;DHT22;3363;50.942;7.034;2022-10-16T07:51:35;14.30;99.90
6654;DHT22;3363;50.942;7.034;2022-10-16T07:54:03;14.30;99.90
6654;DHT22;3363;50.942;7.034;2022-10-16T07:56:30;14.30;99.90
6654;DHT22;3363;50.942;7.034;2022-10-16T07:58:57;14.30;99.90
6654;DHT22;3363;50.942;7.034;2022-10-16T08:01:23;14.20;99.90
6654;DHT22;3363;50.942;7.034;2022-10-16T08:03:51;14.30;99.90
6654;DHT22;3363;50.942;7.034;2022-10-16T08:06:19;14.30;99.90
6654;DHT22;3363;50.942;7.034;2022-10-16T08:08:45;14.40;99.90
6654;DHT22;3363;50.942;7.034;2022-10-16T08:11:12;14.40;99.90
6654;DHT22;3363;50.942;7.034;2022-10-16T08:13:40;14.40;99.90
6654;DHT22;3363;50.942;7.034;2022-10-16T08:16:07;14.50;99.90
6654;DHT22;3363;50.942;7.034;2022-10-16T08:18:35;14.50;99.90
6654;DHT22;3363;50.942;7.034;2022-10-16T08:21:04;14.60;99.90
6654;DHT22;3363;50.942;7.034;2022-10-16T08:23:30;14.80;99.90
6654;DHT22;3363;50.942;7.034;2022-10-16T08:26:01;14.90;99.90
6654;DHT22;3363;50.942;7.034;2022-10-16T08:28:28;15.10;99.90
6654;DHT22;3363;50.942;7.034;2022-10-16T08:30:55;15.20;99.90
6654;DHT22;3363;50.942;7.034;2022-10-16T08:33:22;15.20;99.90
6654;DHT22;3363;50.942;7.034;2022-10-16T08:35:52;15.30;99.90
6654;DHT22;3363;50.942;7.034;2022-10-16T08:38:21;15.40;99.90
6654;DHT22;3363;50.942;7.034;2022-10-16T08:40:47;15.50;99.90
6654;DHT22;3363;50.942;7.034;2022-10-16T08:43:27;15.60;99.90
6654;DHT22;3363;50.942;7.034;2022-10-16T08:46:05;15.70;99.90
6654;DHT22;3363;50.942;7.034;2022-10-16T08:48:35;15.90;99.90
6654;DHT22;3363;50.942;7.034;2022-10-16T08:51:07;16.00;99.90
6654;DHT22;3363;50.942;7.034;2022-10-16T08:53:38;16.10;99.90
6654;DHT22;3363;50.942;7.034;2022-10-16T08:56:05;16.00;99.90
6654;DHT22;3363;50.942;7.034;2022-10-16T08:58:32;16.10;99.90
6654;DHT22;3363;50.942;7.034;2022-10-16T09:01:00;16.30;99.90
6654;DHT22;3363;50.942;7.034;2022-10-16T09:03:31;16.20;99.90
6654;DHT22;3363;50.942;7.034;2022-10-16T09:06:17;16.30;99.90
6654;DHT22;3363;50.942;7.034;2022-10-16T09:08:49;16.20;99.90
6654;DHT22;3363;50.942;7.034;2022-10-16T09:11:20;16.20;99.90
6654;DHT22;3363;50.942;7.034;2022-10-16T09:13:53;16.30;99.90
6654;DHT22;3363;50.942;7.034;2022-10-16T09:16:22;16.40;99.90
6654;DHT22;3363;50.942;7.034;2022-10-16T09:18:51;16.60;99.90
6654;DHT22;3363;50.942;7.034;2022-10-16T09:21:21;16.70;99.90
6654;DHT22;3363;50.942;7.034;2022-10-16T09:23:51;16.80;99.90
6654;DHT22;3363;50.942;7.034;2022-10-16T09:26:17;16.90;99.90
6654;DHT22;3363;50.942;7.034;2022-10-16T09:28:45;17.00;95.50
6654;DHT22;3363;50.942;7.034;2022-10-16T09:31:18;17.00;99.30
6654;DHT22;3363;50.942;7.034;2022-10-16T09:33:46;17.00;97.70
6654;DHT22;3363;50.942;7.034;2022-10-16T09:36:14;17.00;97.70
6654;DHT22;3363;50.942;7.034;2022-10-16T09:38:40;17.10;95.50
6654;DHT22;3363;50.942;7.034;2022-10-16T09:41:13;17.10;95.90
6654;DHT22;3363;50.942;7.034;2022-10-16T09:43:41;17.10;97.70
6654;DHT22;3363;50.942;7.034;2022-10-16T09:46:08;17.30;91.70
6654;DHT22;3363;50.942;7.034;2022-10-16T09:48:36;17.20;93.80
6654;DHT22;3363;50.942;7.034;2022-10-16T09:51:05;17.30;94.60
6654;DHT22;3363;50.942;7.034;2022-10-16T09:53:37;17.40;95.40
6654;DHT22;3363;50.942;7.034;2022-10-16T09:56:04;17.60;92.70
6654;DHT22;3363;50.942;7.034;2022-10-16T09:58:33;17.60;89.40
6654;DHT22;3363;50.942;7.034;2022-10-16T10:00:59;17.50;85.10
6654;DHT22;3363;50.942;7.034;2022-10-16T10:03:36;17.50;90.20
6654;DHT22;3363;50.942;7.034;2022-10-16T10:06:06;17.50;86.40
6654;DHT22;3363;50.942;7.034;2022-10-16T10:08:34;17.50;85.40
6654;DHT22;3363;50.942;7.034;2022-10-16T10:11:01;17.50;90.30
6654;DHT22;3363;50.942;7.034;2022-10-16T10:13:27;17.60;91.10
6654;DHT22;3363;50.942;7.034;2022-10-16T10:15:55;17.70;89.20
6654;DHT22;3363;50.942;7.034;2022-10-16T10:18:22;17.70;88.80
6654;DHT22;3363;50.942;7.034;2022-10-16T10:20:57;17.70;89.00
6654;DHT22;3363;50.942;7.034;2022-10-16T10:23:24;17.60;81.20
6654;DHT22;3363;50.942;7.034;2022-10-16T10:25:52;17.60;89.10
6654;DHT22;3363;50.942;7.034;2022-10-16T10:31:09;17.70;81.10
6654;DHT22;3363;50.942;7.034;2022-10-16T10:33:38;17.50;84.40
6654;DHT22;3363;50.942;7.034;2022-10-16T10:36:10;17.40;80.00
6654;DHT22;3363;50.942;7.034;2022-10-16T10:38:39;17.30;80.60
6654;DHT22;3363;50.942;7.034;2022-10-16T10:41:13;17.20;84.00
6654;DHT22;3363;50.942;7.034;2022-10-16T10:43:49;17.10;83.80
6654;DHT22;3363;50.942;7.034;2022-10-16T10:46:23;17.10;85.20
6654;DHT22;3363;50.942;7.034;2022-10-16T10:49:03;17.00;90.40
6654;DHT22;3363;50.942;7.034;2022-10-16T10:51:35;17.00;90.00
6654;DHT22;3363;50.942;7.034;2022-10-16T10:54:10;17.00;90.40
6654;DHT22;3363;50.942;7.034;2022-10-16T10:56:42;17.20;88.80
6654;DHT22;3363;50.942;7.034;2022-10-16T10:59:21;17.20;88.80
6654;DHT22;3363;50.942;7.034;2022-10-16T11:01:54;17.40;82.10
6654;DHT22;3363;50.942;7.034;2022-10-16T11:07:04;17.40;77.10
6654;DHT22;3363;50.942;7.034;2022-10-16T11:09:31;17.40;77.00
6654;DHT22;3363;50.942;7.034;2022-10-16T11:12:00;17.50;74.50
6654;DHT22;3363;50.942;7.034;2022-10-16T11:14:30;17.70;74.50
6654;DHT22;3363;50.942;7.034;2022-10-16T11:17:02;17.60;74.90
6654;DHT22;3363;50.942;7.034;2022-10-16T11:19:33;17.90;70.30
6654;DHT22;3363;50.942;7.034;2022-10-16T11:22:02;17.90;70.90
6654;DHT22;3363;50.942;7.034;2022-10-16T11:24:34;17.80;71.90
6654;DHT22;3363;50.942;7.034;2022-10-16T11:27:03;17.70;72.10
6654;DHT22;3363;50.942;7.034;2022-10-16T11:29:31;17.90;71.70
6654;DHT22;3363;50.942;7.034;2022-10-16T11:31:59;18.30;69.70
6654;DHT22;3363;50.942;7.034;2022-10-16T11:34:29;18.10;70.30
6654;DHT22;3363;50.942;7.034;2022-10-16T11:36:58;18.10;68.90
6654;DHT22;3363;50.942;7.034;2022-10-16T11:39:28;18.20;68.10
6654;DHT22;3363;50.942;7.034;2022-10-16T11:41:56;18.20;67.60
6654;DHT22;3363;50.942;7.034;2022-10-16T11:44:35;18.00;70.10
6654;DHT22;3363;50.942;7.034;2022-10-16T11:47:06;17.90;70.80
6654;DHT22;3363;50.942;7.034;2022-10-16T11:49:36;18.10;69.60
6654;DHT22;3363;50.942;7.034;2022-10-16T11:52:06;18.10;69.80
6654;DHT22;3363;50.942;7.034;2022-10-16T11:54:35;18.00;71.10
6654;DHT22;3363;50.942;7.034;2022-10-16T11:57:07;17.90;69.40
6654;DHT22;3363;50.942;7.034;2022-10-16T11:59:36;17.90;71.80
6654;DHT22;3363;50.942;7.034;2022-10-16T12:04:53;17.90;72.40
6654;DHT22;3363;50.942;7.034;2022-10-16T12:07:24;17.90;72.10
6654;DHT22;3363;50.942;7.034;2022-10-16T12:09:53;17.80;71.80
6654;DHT22;3363;50.942;7.034;2022-10-16T12:12:25;17.80;72.10
6654;DHT22;3363;50.942;7.034;2022-10-16T12:14:59;17.80;72.40
6654;DHT22;3363;50.942;7.034;2022-10-16T12:17:27;17.70;72.10
6654;DHT22;3363;50.942;7.034;2022-10-16T12:19:58;17.70;72.80
6654;DHT22;3363;50.942;7.034;2022-10-16T12:22:27;17.60;71.60
6654;DHT22;3363;50.942;7.034;2022-10-16T12:24:54;17.70;68.10
6654;DHT22;3363;50.942;7.034;2022-10-16T12:27:23;17.70;70.40
6654;DHT22;3363;50.942;7.034;2022-10-16T12:29:53;17.80;68.20
6654;DHT22;3363;50.942;7.034;2022-10-16T12:32:24;17.80;71.00
6654;DHT22;3363;50.942;7.034;2022-10-16T12:34:53;17.70;70.60
6654;DHT22;3363;50.942;7.034;2022-10-16T12:37:24;17.70;73.30
6654;DHT22;3363;50.942;7.034;2022-10-16T12:39:51;17.80;73.80
6654;DHT22;3363;50.942;7.034;2022-10-16T12:42:21;17.80;69.30
6654;DHT22;3363;50.942;7.034;2022-10-16T12:44:48;18.00;73.50
6654;DHT22;3363;50.942;7.034;2022-10-16T12:47:19;18.00;72.30
6654;DHT22;3363;50.942;7.034;2022-10-16T12:49:48;18.00;74.30
6654;DHT22;3363;50.942;7.034;2022-10-16T12:52:34;18.00;71.30
6654;DHT22;3363;50.942;7.034;2022-10-16T12:55:01;18.00;72.00
6654;DHT22;3363;50.942;7.034;2022-10-16T12:57:34;18.10;71.00
6654;DHT22;3363;50.942;7.034;2022-10-16T13:00:09;18.10;66.90
6654;DHT22;3363;50.942;7.034;2022-10-16T13:02:49;18.00;68.70
6654;DHT22;3363;50.942;7.034;2022-10-16T13:05:24;18.10;70.10
6654;DHT22;3363;50.942;7.034;2022-10-16T13:07:56;18.00;73.20
6654;DHT22;3363;50.942;7.034;2022-10-16T13:10:26;18.10;71.50
6654;DHT22;3363;50.942;7.034;2022-10-16T13:12:59;18.10;73.60
6654;DHT22;3363;50.942;7.034;2022-10-16T13:15:31;18.10;70.80
6654;DHT22;3363;50.942;7.034;2022-10-16T13:18:03;18.20;71.10
6654;DHT22;3363;50.942;7.034;2022-10-16T13:20:33;18.30;68.50
6654;DHT22;3363;50.942;7.034;2022-10-16T13:23:04;18.20;69.30
6654;DHT22;3363;50.942;7.034;2022-10-16T13:25:38;18.20;68.60
6654;DHT22;3363;50.942;7.034;2022-10-16T13:28:07;18.10;72.00
6654;DHT22;3363;50.942;7.034;2022-10-16T13:30:35;18.10;73.50
6654;DHT22;3363;50.942;7.034;2022-10-16T13:33:12;18.10;75.90
6654;DHT22;3363;50.942;7.034;2022-10-16T13:35:46;18.10;72.40
6654;DHT22;3363;50.942;7.034;2022-10-16T13:38:15;18.10;75.00
6654;DHT22;3363;50.942;7.034;2022-10-16T13:40:52;18.10;75.50
6654;DHT22;3363;50.942;7.034;2022-10-16T13:43:20;18.10;78.40
6654;DHT22;3363;50.942;7.034;2022-10-16T13:45:58;18.10;75.40
6654;DHT22;3363;50.942;7.034;2022-10-16T13:48:25;18.10;72.30
6654;DHT22;3363;50.942;7.034;2022-10-16T13:50:58;18.00;74.80
6654;DHT22;3363;50.942;7.034;2022-10-16T13:53:26;18.10;71.30
6654;DHT22;3363;50.942;7.034;2022-10-16T13:55:53;18.20;74.90
6654;DHT22;3363;50.942;7.034;2022-10-16T13:58:19;18.20;72.60
6654;DHT22;3363;50.942;7.034;2022-10-16T14:00:53;18.20;73.10
6654;DHT22;3363;50.942;7.034;2022-10-16T14:03:20;18.30;76.50
6654;DHT22;3363;50.942;7.034;2022-10-16T14:05:47;18.30;76.60
6654;DHT22;3363;50.942;7.034;2022-10-16T14:08:15;18.20;78.60
6654;DHT22;3363;50.942;7.034;2022-10-16T14:10:46;18.20;80.70
6654;DHT22;3363;50.942;7.034;2022-10-16T14:13:14;18.20;76.50
6654;DHT22;3363;50.942;7.034;2022-10-16T14:15:45;18.20;78.50
6654;DHT22;3363;50.942;7.034;2022-10-16T14:18:13;18.10;81.60
6654;DHT22;3363;50.942;7.034;2022-10-16T14:20:43;18.20;80.90
6654;DHT22;3363;50.942;7.034;2022-10-16T14:23:18;18.20;81.50
6654;DHT22;3363;50.942;7.034;2022-10-16T14:25:46;18.20;78.80
6654;DHT22;3363;50.942;7.034;2022-10-16T14:28:15;18.10;78.60
6654;DHT22;3363;50.942;7.034;2022-10-16T14:30:48;18.10;79.90
6654;DHT22;3363;50.942;7.034;2022-10-16T14:33:20;18.00;80.00
6654;DHT22;3363;50.942;7.034;2022-10-16T14:35:56;18.00;80.80
6654;DHT22;3363;50.942;7.034;2022-10-16T14:38:25;18.10;84.00
6654;DHT22;3363;50.942;7.034;2022-10-16T14:40:53;18.10;82.40
6654;DHT22;3363;50.942;7.034;2022-10-16T14:43:21;18.00;83.20
6654;DHT22;3363;50.942;7.034;2022-10-16T14:45:50;18.10;80.80
6654;DHT22;3363;50.942;7.034;2022-10-16T14:48:18;18.10;82.40
6654;DHT22;3363;50.942;7.034;2022-10-16T14:50:46;18.10;80.40
6654;DHT22;3363;50.942;7.034;2022-10-16T14:53:13;18.20;82.30
6654;DHT22;3363;50.942;7.034;2022-10-16T14:55:40;18.20;81.80
6654;DHT22;3363;50.942;7.034;2022-10-16T14:58:10;18.20;81.60
6654;DHT22;3363;50.942;7.034;2022-10-16T15:00:37;18.20;84.10
6654;DHT22;3363;50.942;7.034;2022-10-16T15:03:04;18.20;86.20
6654;DHT22;3363;50.942;7.034;2022-10-16T15:05:31;18.10;85.20
6654;DHT22;3363;50.942;7.034;2022-10-16T15:07:58;18.10;91.70
6654;DHT22;3363;50.942;7.034;2022-10-16T15:10:25;18.00;90.60
6654;DHT22;3363;50.942;7.034;2022-10-16T15:12:53;18.00;90.20
6654;DHT22;3363;50.942;7.034;2022-10-16T15:15:36;17.90;90.20
6654;DHT22;3363;50.942;7.034;2022-10-16T15:18:03;17.90;92.30
6654;DHT22;3363;50.942;7.034;2022-10-16T15:20:32;17.90;90.60
6654;DHT22;3363;50.942;7.034;2022-10-16T15:23:00;17.90;93.80
6654;DHT22;3363;50.942;7.034;2022-10-16T15:25:31;17.90;97.80
6654;DHT22;3363;50.942;7.034;2022-10-16T15:27:58;17.80;97.10
6654;DHT22;3363;50.942;7.034;2022-10-16T15:30:25;17.80;99.40
6654;DHT22;3363;50.942;7.034;2022-10-16T15:32:54;17.80;99.90
6654;DHT22;3363;50.942;7.034;2022-10-16T15:35:20;17.80;99.90
6654;DHT22;3363;50.942;7.034;2022-10-16T15:37:47;17.70;99.90
6654;DHT22;3363;50.942;7.034;2022-10-16T15:40:14;17.70;99.90
6654;DHT22;3363;50.942;7.034;2022-10-16T15:42:41;17.70;99.90
6654;DHT22;3363;50.942;7.034;2022-10-16T15:45:08;17.70;99.90
6654;DHT22;3363;50.942;7.034;2022-10-16T15:47:35;17.70;99.90
6654;DHT22;3363;50.942;7.034;2022-10-16T15:50:04;17.70;99.90
6654;DHT22;3363;50.942;7.034;2022-10-16T15:52:30;17.70;99.90
6654;DHT22;3363;50.942;7.034;2022-10-16T15:54:58;17.70;99.90
6654;DHT22;3363;50.942;7.034;2022-10-16T15:57:24;17.70;99.90
6654;DHT22;3363;50.942;7.034;2022-10-16T15:59:51;17.70;99.90
6654;DHT22;3363;50.942;7.034;2022-10-16T16:02:18;17.60;99.90
6654;DHT22;3363;50.942;7.034;2022-10-16T16:04:44;17.60;99.90
6654;DHT22;3363;50.942;7.034;2022-10-16T16:07:12;17.60;99.90
6654;DHT22;3363;50.942;7.034;2022-10-16T16:09:39;17.60;99.90
6654;DHT22;3363;50.942;7.034;2022-10-16T16:12:06;17.60;99.90
6654;DHT22;3363;50.942;7.034;2022-10-16T16:14:32;17.60;99.90
6654;DHT22;3363;50.942;7.034;2022-10-16T16:16:59;17.60;99.90
6654;DHT22;3363;50.942;7.034;2022-10-16T16:19:27;17.60;99.90